createdAt,value
2022-11-04T00:00:30.098Z,32.42
2022-11-04T00:02:59.444Z,33.67
2022-11-04T00:05:29.167Z,34.97
2022-11-04T00:08:17.472Z,33.78
2022-11-04T00:11:05.832Z,35.72
2022-11-04T00:13:34.535Z,35.05
2022-11-04T00:16:23.337Z,33.35
2022-11-04T00:18:52.237Z,43.85
2022-11-04T00:21:40.846Z,42.78
2022-11-04T00:24:35.112Z,43.42
2022-11-04T00:27:23.739Z,39.10
2022-11-04T00:29:52.502Z,47.15
2022-11-04T00:32:40.950Z,45.95
2022-11-04T00:35:10.736Z,44.75
2022-11-04T00:37:42.220Z,41.83
2022-11-04T00:40:13.149Z,37.50
2022-11-04T00:42:43.967Z,38.90
2022-11-04T00:45:12.829Z,38.05
2022-11-04T00:47:41.595Z,34.58
2022-11-04T00:50:10.793Z,33.40
2022-11-04T00:52:39.482Z,31.83
2022-11-04T00:55:08.724Z,33.58
2022-11-04T00:57:37.796Z,31.77
2022-11-04T01:00:08.167Z,38.22
2022-11-04T01:02:37.006Z,32.47
2022-11-04T01:05:06.066Z,31.00
2022-11-04T01:07:37.343Z,28.20
2022-11-04T01:10:09.068Z,28.08
2022-11-04T01:12:38.152Z,30.20
2022-11-04T01:15:07.439Z,30.38
2022-11-04T01:17:36.177Z,28.98
2022-11-04T01:20:05.041Z,32.58
2022-11-04T01:22:33.770Z,31.38
2022-11-04T01:25:02.576Z,31.05
2022-11-04T01:27:31.317Z,31.98
2022-11-04T01:30:00.234Z,30.73
2022-11-04T01:32:30.006Z,29.90
2022-11-04T01:34:58.751Z,29.92
2022-11-04T01:37:28.096Z,28.50
2022-11-04T01:39:57.108Z,28.95
2022-11-04T01:42:26.086Z,30.55
2022-11-04T01:44:59.188Z,30.52
2022-11-04T01:47:41.025Z,31.00
2022-11-04T01:50:16.081Z,33.35
2022-11-04T01:52:52.551Z,30.38
2022-11-04T01:55:28.901Z,31.08
2022-11-04T01:58:02.298Z,29.67
2022-11-04T02:00:31.637Z,29.13
2022-11-04T02:03:07.426Z,26.70
2022-11-04T02:05:36.543Z,26.48
2022-11-04T02:08:08.263Z,22.90
2022-11-04T02:10:39.290Z,21.73
2022-11-04T02:13:08.456Z,19.55
2022-11-04T02:15:45.186Z,18.70
2022-11-04T02:18:37.826Z,19.40
2022-11-04T02:21:08.478Z,18.10
2022-11-04T02:24:03.253Z,21.10
2022-11-04T02:27:06.954Z,19.65
2022-11-04T02:32:22.934Z,19.58
2022-11-04T02:35:15.636Z,20.55
2022-11-04T02:37:57.398Z,20.73
2022-11-04T02:40:51.502Z,21.17
2022-11-04T02:43:25.683Z,21.20
2022-11-04T02:46:01.596Z,19.17
2022-11-04T02:48:54.685Z,20.30
2022-11-04T02:51:31.021Z,20.90
2022-11-04T02:54:04.616Z,21.13
2022-11-04T02:56:36.123Z,19.73
2022-11-04T02:59:09.076Z,19.45
2022-11-04T03:04:15.801Z,19.98
2022-11-04T03:06:48.478Z,19.42
2022-11-04T03:09:18.462Z,18.85
2022-11-04T03:11:53.347Z,18.67
2022-11-04T03:14:28.968Z,18.85
2022-11-04T03:17:02.810Z,17.08
2022-11-04T03:19:39.272Z,18.48
2022-11-04T03:22:16.885Z,18.40
2022-11-04T03:24:47.509Z,17.33
2022-11-04T03:27:26.537Z,18.25
2022-11-04T03:30:04.116Z,17.42
2022-11-04T03:32:54.094Z,17.80
2022-11-04T03:35:23.310Z,18.95
2022-11-04T03:37:52.250Z,17.85
2022-11-04T03:40:23.547Z,17.23
2022-11-04T03:43:00.713Z,17.33
2022-11-04T03:45:29.874Z,18.05
2022-11-04T03:47:59.451Z,17.75
2022-11-04T03:50:32.249Z,16.85
2022-11-04T03:55:50.447Z,16.08
2022-11-04T03:58:46.751Z,16.42
2022-11-04T04:01:31.699Z,15.38
2022-11-04T04:04:21.741Z,15.50
2022-11-04T04:06:55.133Z,14.95
2022-11-04T04:09:31.708Z,15.98
2022-11-04T04:12:09.511Z,16.15
2022-11-04T04:14:45.239Z,16.02
2022-11-04T04:17:37.738Z,15.60
2022-11-04T04:20:14.722Z,14.93
2022-11-04T04:22:50.552Z,14.40
2022-11-04T04:25:44.711Z,15.63
2022-11-04T04:28:17.129Z,15.32
2022-11-04T04:30:48.414Z,14.20
2022-11-04T04:33:20.288Z,15.32
2022-11-04T04:35:56.702Z,13.98
2022-11-04T04:38:49.095Z,13.55
2022-11-04T04:41:42.877Z,14.30
2022-11-04T04:44:38.054Z,13.77
2022-11-04T04:47:08.271Z,13.30
2022-11-04T04:49:37.197Z,13.50
2022-11-04T04:52:08.992Z,12.98
2022-11-04T04:54:37.723Z,13.32
2022-11-04T04:57:06.447Z,12.02
2022-11-04T04:59:35.785Z,12.98
2022-11-04T05:02:05.089Z,11.70
2022-11-04T05:04:33.933Z,12.07
2022-11-04T05:07:03.595Z,12.38
2022-11-04T05:09:32.256Z,13.73
2022-11-04T05:12:01.101Z,13.48
2022-11-04T05:14:31.023Z,12.27
2022-11-04T05:17:00.014Z,13.18
2022-11-04T05:19:28.859Z,13.13
2022-11-04T05:21:58.024Z,12.68
2022-11-04T05:24:27.538Z,12.93
2022-11-04T05:26:56.421Z,12.38
2022-11-04T05:29:25.132Z,12.30
2022-11-04T05:31:53.868Z,12.85
2022-11-04T05:34:22.663Z,12.45
2022-11-04T05:36:52.031Z,12.65
2022-11-04T05:39:20.811Z,13.20
2022-11-04T05:41:49.668Z,11.57
2022-11-04T05:44:18.453Z,11.70
2022-11-04T05:46:47.231Z,12.00
2022-11-04T05:49:16.006Z,12.52
2022-11-04T05:51:45.516Z,12.63
2022-11-04T05:54:14.801Z,12.05
2022-11-04T05:56:43.660Z,12.00
2022-11-04T05:59:12.405Z,12.95
2022-11-04T06:01:44.064Z,12.73
2022-11-04T06:04:18.952Z,12.23
2022-11-04T06:06:47.970Z,11.75
2022-11-04T06:09:16.793Z,12.75
2022-11-04T06:11:46.364Z,11.90
2022-11-04T06:14:18.788Z,12.38
2022-11-04T06:16:47.757Z,12.27
2022-11-04T06:19:16.628Z,12.68
2022-11-04T06:21:45.374Z,12.07
2022-11-04T06:24:14.257Z,12.65
2022-11-04T06:26:43.234Z,12.38
2022-11-04T06:29:11.947Z,13.88
2022-11-04T06:31:40.743Z,11.13
2022-11-04T06:34:09.517Z,11.65
2022-11-04T06:36:38.308Z,12.15
2022-11-04T06:39:07.148Z,12.48
2022-11-04T06:41:36.030Z,11.57
2022-11-04T06:44:04.836Z,12.52
2022-11-04T06:46:41.136Z,12.20
2022-11-04T06:49:15.473Z,12.52
2022-11-04T06:51:44.950Z,13.10
2022-11-04T06:54:14.364Z,12.88
2022-11-04T06:56:43.845Z,12.65
2022-11-04T06:59:21.851Z,12.05
2022-11-04T07:01:53.139Z,13.05
2022-11-04T07:04:22.766Z,13.57
2022-11-04T07:06:51.539Z,13.40
2022-11-04T07:09:20.309Z,12.38
2022-11-04T07:11:49.587Z,13.35
2022-11-04T07:14:18.300Z,13.32
2022-11-04T07:16:47.117Z,12.32
2022-11-04T07:19:16.187Z,11.95
2022-11-04T07:21:45.201Z,11.63
2022-11-04T07:24:13.902Z,12.52
2022-11-04T07:26:43.575Z,11.80
2022-11-04T07:29:12.406Z,12.85
2022-11-04T07:31:41.156Z,12.90
2022-11-04T07:34:10.597Z,11.38
2022-11-04T07:36:39.397Z,11.63
2022-11-04T07:39:08.625Z,11.93
2022-11-04T07:41:37.450Z,12.40
2022-11-04T07:44:07.358Z,12.85
2022-11-04T07:46:36.105Z,11.27
2022-11-04T07:49:05.202Z,12.50
2022-11-04T07:51:34.107Z,12.15
2022-11-04T07:54:03.004Z,12.05
2022-11-04T07:56:31.777Z,12.20
2022-11-04T07:59:01.155Z,12.32
2022-11-04T08:01:29.934Z,11.05
2022-11-04T08:04:02.268Z,11.35
2022-11-04T08:06:33.275Z,11.10
2022-11-04T08:09:02.167Z,11.90
2022-11-04T08:11:30.947Z,12.55
2022-11-04T08:13:59.691Z,12.60
2022-11-04T08:16:33.950Z,11.93
2022-11-04T08:19:03.518Z,11.55
2022-11-04T08:21:34.084Z,11.70
2022-11-04T08:24:07.056Z,12.30
2022-11-04T08:26:35.871Z,11.60
2022-11-04T08:29:09.280Z,11.27
2022-11-04T08:31:38.382Z,11.98
2022-11-04T08:34:09.755Z,11.70
2022-11-04T08:37:00.011Z,11.75
2022-11-04T08:39:29.210Z,11.50
2022-11-04T08:41:58.774Z,11.45
2022-11-04T08:44:27.712Z,11.32
2022-11-04T08:46:56.511Z,11.77
2022-11-04T08:49:25.250Z,11.65
2022-11-04T08:52:02.533Z,11.88
2022-11-04T08:54:31.450Z,11.13
2022-11-04T08:57:01.114Z,12.60
2022-11-04T08:59:31.126Z,12.90
2022-11-04T09:01:59.922Z,11.52
2022-11-04T09:04:28.781Z,11.10
2022-11-04T09:06:59.304Z,12.32
2022-11-04T09:09:28.726Z,11.82
2022-11-04T09:11:57.571Z,11.43
2022-11-04T09:14:26.657Z,12.18
2022-11-04T09:16:56.842Z,12.10
2022-11-04T09:19:25.710Z,11.63
2022-11-04T09:21:54.750Z,12.48
2022-11-04T09:24:24.185Z,12.52
2022-11-04T09:26:53.081Z,12.45
2022-11-04T09:29:21.810Z,12.77
2022-11-04T09:31:51.294Z,11.80
2022-11-04T09:34:22.868Z,12.68
2022-11-04T09:36:51.558Z,12.68
2022-11-04T09:39:20.448Z,27.40
2022-11-04T09:42:19.095Z,20.77
2022-11-04T09:45:26.530Z,12.70
2022-11-04T09:47:59.838Z,13.82
2022-11-04T09:50:33.233Z,24.30
2022-11-04T09:53:10.222Z,23.05
2022-11-04T09:56:05.295Z,19.77
2022-11-04T09:58:39.658Z,18.23
2022-11-04T10:01:47.912Z,17.98
2022-11-04T10:04:52.158Z,23.63
2022-11-04T10:07:28.871Z,25.35
2022-11-04T10:10:02.888Z,24.20
2022-11-04T10:12:55.780Z,23.02
2022-11-04T10:15:32.775Z,19.70
2022-11-04T10:18:18.986Z,21.20
2022-11-04T10:21:08.922Z,20.65
2022-11-04T10:23:47.346Z,21.35
2022-11-04T10:26:29.321Z,21.42
2022-11-04T10:29:05.707Z,21.42
2022-11-04T10:31:38.005Z,21.05
2022-11-04T10:34:14.128Z,21.10
2022-11-04T10:36:43.744Z,21.10
2022-11-04T10:39:28.359Z,21.50
2022-11-04T10:41:59.185Z,20.80
2022-11-04T10:44:31.249Z,19.23
2022-11-04T10:47:01.860Z,19.05
2022-11-04T10:49:39.061Z,17.52
2022-11-04T10:52:09.747Z,18.08
2022-11-04T10:54:49.227Z,19.05
2022-11-04T10:57:23.047Z,21.88
2022-11-04T10:59:55.711Z,24.35
2022-11-04T11:02:41.852Z,26.77
2022-11-04T11:05:26.864Z,31.63
2022-11-04T11:07:59.263Z,37.47
2022-11-04T11:10:31.948Z,39.58
2022-11-04T11:13:04.498Z,40.65
2022-11-04T11:15:36.581Z,36.95
2022-11-04T11:18:11.298Z,36.43
2022-11-04T11:20:41.970Z,35.03
2022-11-04T11:23:38.625Z,34.42
2022-11-04T11:26:13.691Z,34.78
2022-11-04T11:28:43.257Z,31.92
2022-11-04T11:31:24.377Z,29.10
2022-11-04T11:33:57.240Z,27.35
2022-11-04T11:39:06.836Z,26.80
2022-11-04T11:41:53.474Z,26.15
2022-11-04T11:44:45.435Z,27.63
2022-11-04T11:47:23.691Z,27.60
2022-11-04T11:50:16.910Z,26.10
2022-11-04T11:55:21.929Z,27.98
2022-11-04T12:01:23.926Z,26.30
2022-11-04T12:09:43.668Z,25.58
2022-11-04T12:12:17.887Z,24.75
2022-11-04T12:15:13.652Z,24.92
2022-11-04T12:17:52.897Z,24.67
2022-11-04T12:21:01.804Z,24.58
2022-11-04T12:23:38.118Z,24.27
2022-11-04T12:26:07.826Z,26.13
2022-11-04T12:28:50.717Z,25.17
2022-11-04T12:31:35.243Z,23.60
2022-11-04T12:34:38.750Z,22.38
2022-11-04T12:40:05.918Z,23.88
2022-11-04T12:42:42.829Z,24.17
2022-11-04T12:45:19.958Z,22.98
2022-11-04T12:47:50.178Z,24.38
2022-11-04T12:50:41.875Z,23.77
2022-11-04T12:53:44.051Z,24.95
2022-11-04T12:56:15.529Z,25.38
2022-11-04T12:59:02.559Z,25.13
2022-11-04T13:01:40.507Z,24.92
2022-11-04T13:04:21.481Z,25.92
2022-11-04T13:06:56.401Z,26.77
2022-11-04T13:09:34.011Z,27.02
2022-11-04T13:12:16.369Z,27.65
2022-11-04T13:15:08.964Z,28.70
2022-11-04T13:17:41.059Z,28.38
2022-11-04T13:20:15.343Z,27.50
2022-11-04T13:22:50.127Z,28.95
2022-11-04T13:25:26.746Z,27.23
2022-11-04T13:27:55.840Z,29.23
2022-11-04T13:30:36.421Z,28.83
2022-11-04T13:33:26.262Z,28.45
2022-11-04T13:35:59.264Z,28.45
2022-11-04T13:38:42.775Z,28.95
2022-11-04T13:41:23.547Z,28.27
2022-11-04T13:44:04.258Z,27.88
2022-11-04T13:46:35.657Z,26.48
2022-11-04T13:49:15.511Z,26.38
2022-11-04T13:51:47.236Z,26.90
2022-11-04T13:54:37.453Z,27.83
2022-11-04T13:57:10.082Z,27.83
2022-11-04T13:59:39.515Z,26.58
2022-11-04T14:02:26.949Z,26.15
2022-11-04T14:04:57.215Z,28.17
2022-11-04T14:08:02.671Z,27.35
2022-11-04T14:10:51.783Z,25.80
2022-11-04T14:13:39.920Z,26.67
2022-11-04T14:16:28.695Z,27.33
2022-11-04T14:18:57.509Z,26.88
2022-11-04T14:21:30.454Z,31.02
2022-11-04T14:24:02.368Z,31.40
2022-11-04T14:26:44.186Z,28.60
2022-11-04T14:29:29.028Z,27.20
2022-11-04T14:32:01.513Z,28.48
2022-11-04T14:34:37.538Z,30.15
2022-11-04T14:37:23.369Z,30.13
2022-11-04T14:40:02.871Z,31.20
2022-11-04T14:42:51.624Z,34.08
2022-11-04T14:45:25.616Z,35.65
2022-11-04T14:48:01.615Z,34.55
2022-11-04T14:50:30.772Z,37.20
2022-11-04T14:53:03.391Z,37.85
2022-11-04T14:55:33.797Z,37.45
2022-11-04T14:58:24.399Z,37.30
2022-11-04T15:00:57.162Z,36.45
2022-11-04T15:06:40.577Z,37.05
2022-11-04T15:09:30.533Z,35.90
2022-11-04T15:12:33.981Z,36.05
2022-11-04T15:15:02.848Z,36.55
2022-11-04T15:17:34.877Z,35.65
2022-11-04T15:20:05.686Z,37.50
2022-11-04T15:22:34.388Z,36.78
2022-11-04T15:25:06.839Z,35.15
2022-11-04T15:27:37.047Z,35.58
2022-11-04T15:30:20.488Z,37.03
2022-11-04T15:33:05.427Z,35.67
2022-11-04T15:35:35.350Z,36.10
2022-11-04T15:38:04.887Z,35.72
2022-11-04T15:40:36.828Z,35.25
2022-11-04T15:43:07.817Z,36.05
2022-11-04T15:45:52.306Z,35.22
2022-11-04T15:48:27.342Z,34.08
2022-11-04T15:51:01.405Z,34.80
2022-11-04T15:53:30.185Z,35.80
2022-11-04T15:55:58.962Z,35.72
2022-11-04T15:58:28.930Z,33.50
2022-11-04T16:00:58.092Z,34.63
2022-11-04T16:03:27.002Z,35.63
2022-11-04T16:06:07.879Z,34.83
2022-11-04T16:08:36.764Z,37.22
2022-11-04T16:11:16.250Z,33.95
2022-11-04T16:13:46.012Z,35.45
2022-11-04T16:16:25.263Z,33.58
2022-11-04T16:18:56.968Z,36.45
2022-11-04T16:21:31.684Z,36.83
2022-11-04T16:24:03.593Z,34.80
2022-11-04T16:26:42.488Z,36.15
2022-11-04T16:29:19.767Z,33.50
2022-11-04T16:32:05.459Z,33.15
2022-11-04T16:34:34.250Z,33.22
2022-11-04T16:37:04.200Z,33.03
2022-11-04T16:39:33.657Z,32.08
2022-11-04T16:42:02.561Z,33.15
2022-11-04T16:44:31.415Z,33.60
2022-11-04T16:47:03.050Z,31.02
2022-11-04T16:49:32.006Z,33.33
2022-11-04T16:52:04.260Z,30.90
2022-11-04T16:54:33.028Z,31.58
2022-11-04T16:57:04.011Z,32.30
2022-11-04T17:03:27.948Z,31.95
2022-11-04T17:05:58.808Z,31.05
2022-11-04T17:08:28.470Z,31.58
2022-11-04T17:10:57.265Z,32.20
2022-11-04T17:13:26.093Z,30.05
2022-11-04T17:15:55.506Z,31.83
2022-11-04T17:18:24.486Z,31.23
2022-11-04T17:20:55.941Z,32.25
2022-11-04T17:23:25.685Z,31.10
2022-11-04T17:25:55.314Z,41.45
2022-11-04T17:28:24.307Z,33.25
2022-11-04T17:30:53.353Z,30.20
2022-11-04T17:33:22.310Z,30.63
2022-11-04T17:35:52.311Z,32.90
2022-11-04T17:38:21.474Z,32.83
2022-11-04T17:41:09.817Z,32.28
2022-11-04T17:43:58.138Z,31.90
2022-11-04T17:46:46.570Z,33.00
2022-11-04T17:49:17.956Z,31.90
2022-11-04T17:51:52.486Z,31.10
2022-11-04T17:54:22.529Z,32.05
2022-11-04T17:56:52.082Z,31.70
2022-11-04T17:59:21.398Z,31.85
2022-11-04T18:01:50.803Z,33.85
2022-11-04T18:04:22.775Z,33.28
2022-11-04T18:06:54.299Z,32.03
2022-11-04T18:09:24.827Z,33.67
2022-11-04T18:12:13.097Z,32.47
2022-11-04T18:14:45.853Z,31.85
2022-11-04T18:17:14.661Z,32.15
2022-11-04T18:19:43.838Z,33.13
2022-11-04T18:22:12.543Z,33.45
2022-11-04T18:24:41.898Z,32.03
2022-11-04T18:27:11.674Z,32.33
2022-11-04T18:29:40.402Z,33.80
2022-11-04T18:32:09.397Z,32.13
2022-11-04T18:34:38.252Z,34.17
2022-11-04T18:37:07.119Z,34.90
2022-11-04T18:39:35.896Z,34.25
2022-11-04T18:42:04.693Z,32.67
2022-11-04T18:44:34.026Z,32.70
2022-11-04T18:47:02.961Z,33.17
2022-11-04T18:49:31.793Z,33.67
2022-11-04T18:52:01.257Z,31.58
2022-11-04T18:54:30.047Z,33.17
2022-11-04T18:56:58.773Z,31.75
2022-11-04T18:59:27.563Z,31.63
2022-11-04T19:01:56.507Z,33.38
2022-11-04T19:04:25.316Z,31.88
2022-11-04T19:06:54.050Z,31.80
2022-11-04T19:12:32.537Z,32.33
2022-11-04T19:15:01.382Z,31.25
2022-11-04T19:17:30.044Z,32.75
2022-11-04T19:19:59.224Z,32.30
2022-11-04T19:22:28.195Z,31.48
2022-11-04T19:24:56.898Z,32.20
2022-11-04T19:27:25.965Z,32.45
2022-11-04T19:29:55.048Z,32.90
2022-11-04T19:32:23.752Z,32.38
2022-11-04T19:34:52.466Z,30.95
2022-11-04T19:37:21.268Z,32.83
2022-11-04T19:39:49.975Z,33.05
2022-11-04T19:42:38.297Z,32.05
2022-11-04T19:45:07.455Z,34.00
2022-11-04T19:47:36.255Z,32.80
2022-11-04T19:50:05.541Z,32.90
2022-11-04T19:52:34.266Z,33.28
2022-11-04T19:55:03.092Z,34.90
2022-11-04T19:57:32.747Z,33.45
2022-11-04T20:00:01.456Z,33.90
2022-11-04T20:02:30.343Z,34.03
2022-11-04T20:04:59.156Z,33.90
2022-11-04T20:07:27.867Z,33.63
2022-11-04T20:09:56.780Z,32.67
2022-11-04T20:12:45.041Z,33.35
2022-11-04T20:15:13.833Z,32.75
2022-11-04T20:17:42.644Z,32.40
2022-11-04T20:20:11.381Z,32.70
2022-11-04T20:22:40.142Z,32.17
2022-11-04T20:25:09.274Z,32.88
2022-11-04T20:27:38.573Z,31.33
2022-11-04T20:30:08.006Z,32.75
2022-11-04T20:32:36.863Z,32.03
2022-11-04T20:35:05.832Z,33.67
2022-11-04T20:37:34.572Z,31.92
2022-11-04T20:40:03.374Z,32.03
2022-11-04T20:42:33.405Z,32.72
2022-11-04T20:45:02.149Z,30.40
2022-11-04T20:47:32.189Z,31.08
2022-11-04T20:50:01.763Z,32.58
2022-11-04T20:52:31.359Z,31.88
2022-11-04T20:55:00.083Z,34.17
2022-11-04T20:57:28.896Z,32.97
2022-11-04T20:59:58.422Z,32.60
2022-11-04T21:02:27.632Z,34.10
2022-11-04T21:04:56.390Z,31.60
2022-11-04T21:07:25.487Z,33.45
2022-11-04T21:09:54.338Z,32.42
2022-11-04T21:12:23.054Z,31.92
2022-11-04T21:14:52.099Z,31.65
2022-11-04T21:17:20.788Z,33.05
2022-11-04T21:19:49.538Z,33.60
2022-11-04T21:22:18.198Z,32.28
2022-11-04T21:24:46.970Z,34.25
2022-11-04T21:27:15.743Z,35.38
2022-11-04T21:29:44.529Z,33.50
2022-11-04T21:32:13.224Z,34.45
2022-11-04T21:34:41.961Z,34.92
2022-11-04T21:37:10.642Z,34.45
2022-11-04T21:39:39.516Z,34.08
2022-11-04T21:42:08.479Z,34.85
2022-11-04T21:44:37.538Z,40.30
2022-11-04T21:47:06.298Z,41.28
2022-11-04T21:49:35.012Z,41.08
2022-11-04T21:52:03.783Z,39.20
2022-11-04T21:54:32.580Z,37.90
2022-11-04T21:57:01.319Z,38.28
2022-11-04T21:59:33.566Z,37.25
2022-11-04T22:02:02.374Z,38.08
2022-11-04T22:04:31.190Z,36.63
2022-11-04T22:06:59.917Z,36.35
2022-11-04T22:09:28.695Z,35.22
2022-11-04T22:11:57.457Z,36.42
2022-11-04T22:14:26.449Z,37.00
2022-11-04T22:16:55.294Z,35.47
2022-11-04T22:19:23.964Z,35.53
2022-11-04T22:21:53.020Z,36.58
2022-11-04T22:24:22.090Z,35.53
2022-11-04T22:26:51.252Z,37.03
2022-11-04T22:29:20.082Z,36.83
2022-11-04T22:31:48.786Z,37.70
2022-11-04T22:34:17.495Z,35.78
2022-11-04T22:36:46.276Z,35.60
2022-11-04T22:39:17.072Z,36.05
2022-11-04T22:41:47.253Z,37.65
2022-11-04T22:44:16.169Z,36.28
2022-11-04T22:46:44.856Z,36.78
2022-11-04T22:49:15.452Z,36.08
2022-11-04T22:51:44.208Z,38.15
2022-11-04T22:54:13.046Z,35.45
2022-11-04T22:56:41.940Z,36.67
2022-11-04T22:59:12.147Z,37.38
2022-11-04T23:01:41.837Z,37.00
2022-11-04T23:04:13.259Z,36.72
2022-11-04T23:06:42.517Z,37.80
2022-11-04T23:09:13.894Z,37.58
2022-11-04T23:12:02.515Z,38.67
2022-11-04T23:14:51.572Z,37.25
2022-11-04T23:17:43.044Z,37.35
2022-11-04T23:20:14.617Z,37.10
2022-11-04T23:23:03.489Z,36.00
2022-11-04T23:25:32.355Z,36.47
2022-11-04T23:28:20.641Z,38.58
2022-11-04T23:30:53.238Z,40.30
2022-11-04T23:33:41.556Z,40.00
2022-11-04T23:36:31.147Z,40.00
2022-11-04T23:38:59.831Z,41.67
2022-11-04T23:41:48.212Z,40.22
2022-11-04T23:44:36.487Z,41.00
2022-11-04T23:47:24.963Z,41.33
2022-11-04T23:50:13.313Z,42.72
2022-11-04T23:53:01.642Z,43.47
2022-11-04T23:55:50.048Z,42.60
2022-11-04T23:58:38.388Z,42.83
